createdAt,value
2023-05-04T00:00:05.705Z,3.56
2023-05-04T00:01:05.355Z,3.39
2023-05-04T00:02:05.375Z,3.67
2023-05-04T00:03:05.600Z,3.56
2023-05-04T00:04:05.483Z,3.78
2023-05-04T00:05:05.399Z,3.67
2023-05-04T00:07:05.372Z,3.78
2023-05-04T00:08:05.381Z,3.78
2023-05-04T00:09:05.356Z,3.67
2023-05-04T00:10:05.569Z,3.78
2023-05-04T00:11:05.375Z,3.56
2023-05-04T00:13:05.379Z,3.39
2023-05-04T00:15:05.399Z,3.67
2023-05-04T00:16:05.452Z,3.78
2023-05-04T00:18:05.428Z,3.67
2023-05-04T00:20:05.658Z,3.67
2023-05-04T00:21:05.420Z,3.67
2023-05-04T00:23:05.412Z,3.39
2023-05-04T00:25:05.410Z,3.67
2023-05-04T00:28:05.370Z,4.11
2023-05-04T00:29:05.399Z,3.94
2023-05-04T00:31:05.385Z,3.78
2023-05-04T00:32:05.706Z,3.94
2023-05-04T00:33:05.448Z,4.11
2023-05-04T00:34:05.387Z,4.11
2023-05-04T00:35:05.389Z,3.94
2023-05-04T00:36:05.382Z,4.22
2023-05-04T00:37:05.408Z,4.11
2023-05-04T00:39:05.391Z,3.78
2023-05-04T00:41:05.389Z,4.11
2023-05-04T00:42:05.378Z,3.78
2023-05-04T00:43:05.390Z,3.94
2023-05-04T00:44:05.389Z,3.67
2023-05-04T00:45:05.390Z,3.56
2023-05-04T00:46:05.384Z,3.94
2023-05-04T00:47:05.400Z,3.78
2023-05-04T00:48:05.487Z,3.94
2023-05-04T00:49:05.401Z,3.94
2023-05-04T00:50:05.594Z,3.94
2023-05-04T00:51:05.408Z,3.78
2023-05-04T00:52:05.451Z,3.94
2023-05-04T00:53:05.411Z,4.11
2023-05-04T00:55:05.469Z,4.22
2023-05-04T00:56:05.411Z,4.11
2023-05-04T00:57:05.403Z,3.78
2023-05-04T00:59:05.417Z,3.67
2023-05-04T01:00:05.605Z,3.67
2023-05-04T01:01:05.484Z,3.39
2023-05-04T01:02:05.423Z,3.28
2023-05-04T01:04:05.561Z,3.28
2023-05-04T01:05:05.415Z,3.28
2023-05-04T01:06:05.426Z,2.83
2023-05-04T01:07:05.399Z,2.72
2023-05-04T01:08:05.426Z,3
2023-05-04T01:09:05.434Z,3
2023-05-04T01:10:05.734Z,2.83
2023-05-04T01:11:05.419Z,2.39
2023-05-04T01:12:05.396Z,3
2023-05-04T01:13:05.451Z,3.11
2023-05-04T01:14:05.409Z,3.28
2023-05-04T01:15:05.417Z,3.28
2023-05-04T01:16:05.418Z,3.11
2023-05-04T01:18:05.527Z,3
2023-05-04T01:19:05.403Z,3
2023-05-04T01:20:05.705Z,2.83
2023-05-04T01:21:05.406Z,3.11
2023-05-04T01:22:05.426Z,3.28
2023-05-04T01:23:05.432Z,3.56
2023-05-04T01:24:05.414Z,3.28
2023-05-04T01:25:05.478Z,3.56
2023-05-04T01:27:05.421Z,3.56
2023-05-04T01:28:05.466Z,3.78
2023-05-04T01:30:05.658Z,3.56
2023-05-04T01:31:05.439Z,3.39
2023-05-04T01:32:05.422Z,3.39
2023-05-04T01:33:05.448Z,3.56
2023-05-04T01:34:05.411Z,3.56
2023-05-04T01:35:05.429Z,3.67
2023-05-04T01:36:05.416Z,3.67
2023-05-04T01:37:05.426Z,3.67
2023-05-04T01:38:05.428Z,3.67
2023-05-04T01:39:05.417Z,3.67
2023-05-04T01:40:05.511Z,3.67
2023-05-04T01:41:05.470Z,3.67
2023-05-04T01:43:05.438Z,3.67
2023-05-04T01:45:05.424Z,3.67
2023-05-04T01:46:05.483Z,3.67
2023-05-04T01:47:05.429Z,3.44
2023-05-04T01:48:05.461Z,3.67
2023-05-04T01:49:05.434Z,3.61
2023-05-04T01:50:05.680Z,3.67
2023-05-04T01:52:05.443Z,3.67
2023-05-04T01:53:05.408Z,3.56
2023-05-04T01:54:05.436Z,3.56
2023-05-04T01:55:05.416Z,3.28
2023-05-04T01:56:05.440Z,3.33
2023-05-04T01:57:05.492Z,3.44
2023-05-04T01:58:05.461Z,3.67
2023-05-04T02:00:05.676Z,3.33
2023-05-04T02:01:05.444Z,3.28
2023-05-04T02:02:05.534Z,3
2023-05-04T02:03:05.507Z,3.28
2023-05-04T02:04:05.512Z,3.28
2023-05-04T02:05:05.432Z,3.11
2023-05-04T02:07:05.442Z,2.83
2023-05-04T02:09:05.420Z,2.56
2023-05-04T02:10:05.605Z,2.72
2023-05-04T02:11:05.427Z,2.56
2023-05-04T02:13:05.484Z,3
2023-05-04T02:15:05.437Z,2.94
2023-05-04T02:16:05.454Z,2.89
2023-05-04T02:17:05.428Z,3.06
2023-05-04T02:18:05.462Z,2.94
2023-05-04T02:20:05.679Z,2.83
2023-05-04T02:22:05.429Z,2.56
2023-05-04T02:23:05.436Z,2.28
2023-05-04T02:24:05.428Z,2.56
2023-05-04T02:26:05.431Z,2.56
2023-05-04T02:27:05.447Z,2.22
2023-05-04T02:29:05.462Z,3.11
2023-05-04T02:31:05.429Z,2.72
2023-05-04T02:32:05.517Z,2.89
2023-05-04T02:34:05.431Z,2.61
2023-05-04T02:35:05.428Z,3
2023-05-04T02:36:05.442Z,3
2023-05-04T02:38:05.426Z,3
2023-05-04T02:39:05.427Z,2.89
2023-05-04T02:40:05.571Z,2.72
2023-05-04T02:41:05.423Z,2.61
2023-05-04T02:42:05.437Z,2.61
2023-05-04T02:43:05.437Z,2.28
2023-05-04T02:44:05.444Z,2.44
2023-05-04T02:45:05.451Z,2.33
2023-05-04T02:46:05.460Z,2.39
2023-05-04T02:47:05.464Z,2.17
2023-05-04T02:49:05.464Z,2.11
2023-05-04T02:51:05.434Z,2.17
2023-05-04T02:53:05.431Z,2
2023-05-04T02:55:05.436Z,1.67
2023-05-04T02:56:05.440Z,1.61
2023-05-04T02:57:05.444Z,1.89
2023-05-04T02:59:05.440Z,2.17
2023-05-04T03:00:05.638Z,2.44
2023-05-04T03:01:05.475Z,2.61
2023-05-04T03:03:05.465Z,2.44
2023-05-04T03:04:05.460Z,2.28
2023-05-04T03:05:05.440Z,2.61
2023-05-04T03:06:05.435Z,2.44
2023-05-04T03:07:05.448Z,2.61
2023-05-04T03:09:05.447Z,2.72
2023-05-04T03:10:05.642Z,2.72
2023-05-04T03:12:05.431Z,2.89
2023-05-04T03:13:05.481Z,2.89
2023-05-04T03:14:05.427Z,2.72
2023-05-04T03:15:05.439Z,2.44
2023-05-04T03:17:05.481Z,2.61
2023-05-04T03:18:05.535Z,2.61
2023-05-04T03:19:05.439Z,2.72
2023-05-04T03:21:05.460Z,2.17
2023-05-04T03:22:05.448Z,2.72
2023-05-04T03:23:05.429Z,2.28
2023-05-04T03:24:05.438Z,2.44
2023-05-04T03:25:05.466Z,2.61
2023-05-04T03:26:05.451Z,2.61
2023-05-04T03:27:05.429Z,2.17
2023-05-04T03:28:05.441Z,2.44
2023-05-04T03:29:05.442Z,1.72
2023-05-04T03:30:05.662Z,2.44
2023-05-04T03:31:05.446Z,2.44
2023-05-04T03:32:05.465Z,2.61
2023-05-04T03:33:05.635Z,2.61
2023-05-04T03:34:05.438Z,2.28
2023-05-04T03:35:05.445Z,2.61
2023-05-04T03:36:05.433Z,2.61
2023-05-04T03:37:05.447Z,2.17
2023-05-04T03:39:05.457Z,2.61
2023-05-04T03:40:05.652Z,2.28
2023-05-04T03:41:05.434Z,2.28
2023-05-04T03:42:05.441Z,2.28
2023-05-04T03:43:05.449Z,2.61
2023-05-04T03:44:05.455Z,2.44
2023-05-04T03:45:05.457Z,2.44
2023-05-04T03:47:05.461Z,2.44
2023-05-04T03:48:05.540Z,2.28
2023-05-04T03:49:05.572Z,2.17
2023-05-04T03:51:05.460Z,2.28
2023-05-04T03:53:05.454Z,2.17
2023-05-04T03:54:05.442Z,2.17
2023-05-04T03:55:05.446Z,2.28
2023-05-04T03:56:05.464Z,2.44
2023-05-04T03:57:05.459Z,2.61
2023-05-04T03:59:05.446Z,2.28
2023-05-04T04:00:05.599Z,2.61
2023-05-04T04:02:05.482Z,2.61
2023-05-04T04:03:05.516Z,2.28
2023-05-04T04:04:05.628Z,2.72
2023-05-04T04:05:05.487Z,2.89
2023-05-04T04:06:05.454Z,2.89
2023-05-04T04:07:05.492Z,3.17
2023-05-04T04:08:05.482Z,3.17
2023-05-04T04:10:05.805Z,3.44
2023-05-04T04:11:05.461Z,3.33
2023-05-04T04:13:05.529Z,3.56
2023-05-04T04:14:05.460Z,3.44
2023-05-04T04:15:05.473Z,3.44
2023-05-04T04:16:05.499Z,3.72
2023-05-04T04:18:05.499Z,3.44
2023-05-04T04:19:05.476Z,3.33
2023-05-04T04:20:05.830Z,3.17
2023-05-04T04:21:05.488Z,3.17
2023-05-04T04:22:05.455Z,3
2023-05-04T04:23:05.464Z,3
2023-05-04T04:24:05.484Z,2.89
2023-05-04T04:25:05.467Z,2.89
2023-05-04T04:26:05.476Z,2.61
2023-05-04T04:27:05.461Z,2.72
2023-05-04T04:28:05.491Z,2.89
2023-05-04T04:30:05.591Z,2.89
2023-05-04T04:31:05.525Z,3
2023-05-04T04:33:05.483Z,2.72
2023-05-04T04:34:05.477Z,3
2023-05-04T04:36:05.472Z,2.44
2023-05-04T04:37:05.500Z,3.17
2023-05-04T04:39:05.481Z,3
2023-05-04T04:40:05.681Z,2.89
2023-05-04T04:41:05.470Z,2.72
2023-05-04T04:42:05.481Z,3
2023-05-04T04:44:05.475Z,3
2023-05-04T04:45:05.494Z,3.17
2023-05-04T04:46:05.475Z,3.17
2023-05-04T04:47:05.564Z,3.44
2023-05-04T04:48:05.492Z,3.17
2023-05-04T04:49:05.485Z,3.44
2023-05-04T04:51:05.527Z,3.56
2023-05-04T04:52:05.499Z,3.72
2023-05-04T04:53:05.596Z,4
2023-05-04T04:55:05.526Z,4
2023-05-04T04:57:05.485Z,4.44
2023-05-04T04:58:05.509Z,4.56
2023-05-04T04:59:05.476Z,4.44
2023-05-04T05:00:05.695Z,4.28
2023-05-04T05:01:05.522Z,4.28
2023-05-04T05:02:05.491Z,4.56
2023-05-04T05:03:05.499Z,4.44
2023-05-04T05:04:05.484Z,4.72
2023-05-04T05:05:05.593Z,4.72
2023-05-04T05:06:05.484Z,4.72
2023-05-04T05:07:05.490Z,4.28
2023-05-04T05:08:05.481Z,4.72
2023-05-04T05:09:05.525Z,4.44
2023-05-04T05:11:05.480Z,4.44
2023-05-04T05:12:05.490Z,4.56
2023-05-04T05:13:05.522Z,4.72
2023-05-04T05:14:05.477Z,4.72
2023-05-04T05:15:05.500Z,4.72
2023-05-04T05:16:05.746Z,4.72
2023-05-04T05:17:05.634Z,4.44
2023-05-04T05:18:05.527Z,4.72
2023-05-04T05:19:05.495Z,4.44
2023-05-04T05:20:05.669Z,4.56
2023-05-04T05:21:05.530Z,4.89
2023-05-04T05:22:05.520Z,4.89
2023-05-04T05:24:05.509Z,5.33
2023-05-04T05:25:05.651Z,5.44
2023-05-04T05:26:05.509Z,5
2023-05-04T05:27:05.539Z,4.89
2023-05-04T05:28:05.499Z,5
2023-05-04T05:29:05.509Z,5
2023-05-04T05:30:05.797Z,4.72
2023-05-04T05:31:05.574Z,5
2023-05-04T05:33:05.535Z,4.72
2023-05-04T05:34:05.507Z,5
2023-05-04T05:36:05.512Z,5.17
2023-05-04T05:37:05.506Z,5.17
2023-05-04T05:38:05.521Z,5.44
2023-05-04T05:40:05.729Z,5.61
2023-05-04T05:41:05.535Z,5
2023-05-04T05:43:05.528Z,5.44
2023-05-04T05:44:05.534Z,5.61
2023-05-04T05:45:05.509Z,5.44
2023-05-04T05:46:05.568Z,5.83
2023-05-04T05:48:05.615Z,6
2023-05-04T05:49:05.525Z,6
2023-05-04T05:50:05.799Z,6.28
2023-05-04T05:52:05.560Z,6.11
2023-05-04T05:53:05.539Z,6.11
2023-05-04T05:55:05.543Z,6
2023-05-04T05:56:05.547Z,6.39
2023-05-04T05:57:05.649Z,6.11
2023-05-04T05:59:05.540Z,6.39
2023-05-04T06:00:05.715Z,6.72
2023-05-04T06:01:05.553Z,6.72
2023-05-04T06:03:05.661Z,6.83
2023-05-04T06:04:05.638Z,6.83
2023-05-04T06:05:05.693Z,6.83
2023-05-04T06:07:05.565Z,6.72
2023-05-04T06:08:05.579Z,6.72
2023-05-04T06:09:05.545Z,6.56
2023-05-04T06:10:05.856Z,6.39
2023-05-04T06:11:05.544Z,6.72
2023-05-04T06:12:05.540Z,6.11
2023-05-04T06:13:05.631Z,6.56
2023-05-04T06:14:05.543Z,6.72
2023-05-04T06:15:05.560Z,6.39
2023-05-04T06:16:05.605Z,6.39
2023-05-04T06:18:05.603Z,7
2023-05-04T06:20:06.025Z,6.83
2023-05-04T06:22:05.548Z,6.56
2023-05-04T06:23:05.557Z,6.39
2023-05-04T06:24:05.572Z,6.28
2023-05-04T06:26:05.551Z,7
2023-05-04T06:27:05.576Z,7.17
2023-05-04T06:28:05.557Z,7.17
2023-05-04T06:29:05.610Z,7.17
2023-05-04T06:30:05.719Z,7
2023-05-04T06:31:05.577Z,7.28
2023-05-04T06:32:05.687Z,7.72
2023-05-04T06:33:05.586Z,7.72
2023-05-04T06:34:05.592Z,8
2023-05-04T06:36:05.580Z,8.33
2023-05-04T06:38:05.574Z,8.17
2023-05-04T06:39:05.568Z,9
2023-05-04T06:41:05.584Z,8.61
2023-05-04T06:42:05.579Z,9.17
2023-05-04T06:43:05.600Z,8.83
2023-05-04T06:45:05.637Z,9.61
2023-05-04T06:46:05.601Z,9.89
2023-05-04T06:47:05.575Z,9.89
2023-05-04T06:48:05.613Z,10.33
2023-05-04T06:49:05.591Z,10.78
2023-05-04T06:50:05.814Z,10.61
2023-05-04T06:51:05.589Z,10.78
2023-05-04T06:52:05.591Z,10.33
2023-05-04T06:54:05.582Z,11.56
2023-05-04T06:56:05.598Z,10.5
2023-05-04T06:57:05.585Z,11.67
2023-05-04T06:59:05.597Z,11.56
2023-05-04T07:00:05.768Z,12.5
2023-05-04T07:01:05.904Z,13.44
2023-05-04T07:03:05.617Z,14.06
2023-05-04T07:04:05.754Z,14.33
2023-05-04T07:05:05.594Z,15.28
2023-05-04T07:06:05.596Z,16.44
2023-05-04T07:08:05.598Z,16.94
2023-05-04T07:09:05.610Z,16.33
2023-05-04T07:11:05.617Z,17.44
2023-05-04T07:12:05.607Z,15.83
2023-05-04T07:13:05.628Z,15.72
2023-05-04T07:14:05.827Z,14.83
2023-05-04T07:16:05.609Z,16.61
2023-05-04T07:17:05.630Z,16.44
2023-05-04T07:19:05.608Z,16.33
2023-05-04T07:20:05.870Z,16.94
2023-05-04T07:21:16.612Z,16.17
2023-05-04T07:23:05.610Z,17.61
2023-05-04T07:24:05.638Z,18.11
2023-05-04T07:25:05.641Z,17.28
2023-05-04T07:26:05.616Z,16.61
2023-05-04T07:27:05.627Z,16.61
2023-05-04T07:28:05.613Z,16.33
2023-05-04T07:29:05.618Z,15.83
2023-05-04T07:30:05.807Z,16.17
2023-05-04T07:31:05.625Z,16
2023-05-04T07:32:05.659Z,15.33
2023-05-04T07:33:05.706Z,15.33
2023-05-04T07:35:05.666Z,14.06
2023-05-04T07:36:05.615Z,13.78
2023-05-04T07:37:05.623Z,14.06
2023-05-04T07:39:05.684Z,12.56
2023-05-04T07:40:05.949Z,12.28
2023-05-04T07:41:05.623Z,12.56
2023-05-04T07:42:05.631Z,13.33
2023-05-04T07:43:05.638Z,13.33
2023-05-04T07:44:05.742Z,13.67
2023-05-04T07:45:05.616Z,13.78
2023-05-04T07:46:05.674Z,13.33
2023-05-04T07:47:05.621Z,13.5
2023-05-04T07:48:05.646Z,13.5
2023-05-04T07:49:05.745Z,12.89
2023-05-04T07:51:05.657Z,13.17
2023-05-04T07:53:05.652Z,13.5
2023-05-04T07:54:05.639Z,13.06
2023-05-04T07:55:05.629Z,13.06
2023-05-04T07:56:05.642Z,13.06
2023-05-04T07:57:05.633Z,13.17
2023-05-04T07:59:05.646Z,11.83
2023-05-04T08:00:05.889Z,11.72
2023-05-04T08:01:05.629Z,12.28
2023-05-04T08:02:05.666Z,12.28
2023-05-04T08:03:05.696Z,13.06
2023-05-04T08:04:05.652Z,13.17
2023-05-04T08:05:05.686Z,13.5
2023-05-04T08:07:05.647Z,13.67
2023-05-04T08:09:05.666Z,13.5
2023-05-04T08:11:19.010Z,13.06
2023-05-04T08:12:05.663Z,13.33
2023-05-04T08:14:05.660Z,13.5
2023-05-04T08:16:05.644Z,12.89
2023-05-04T08:17:05.656Z,12.56
2023-05-04T08:20:05.644Z,14.06
2023-05-04T08:21:05.670Z,14.28
2023-05-04T08:22:05.790Z,13.67
2023-05-04T08:23:05.657Z,13.17
2023-05-04T08:24:05.659Z,13.33
2023-05-04T08:26:05.657Z,13.67
2023-05-04T08:27:08.285Z,13.06
2023-05-04T08:28:05.645Z,13.67
2023-05-04T08:29:05.656Z,13.17
2023-05-04T08:31:05.656Z,13.5
2023-05-04T08:32:05.836Z,13.94
2023-05-04T08:33:05.686Z,14.56
2023-05-04T08:34:05.655Z,14.39
2023-05-04T08:35:05.746Z,14.56
2023-05-04T08:36:05.665Z,14.28
2023-05-04T08:37:05.710Z,14.28
2023-05-04T08:39:05.664Z,12.72
2023-05-04T08:40:05.686Z,13.67
2023-05-04T08:41:05.652Z,13.78
2023-05-04T08:42:05.668Z,14.06
2023-05-04T08:44:05.665Z,13.17
2023-05-04T08:45:05.909Z,13.17
2023-05-04T08:46:05.727Z,12.72
2023-05-04T08:47:05.664Z,12.44
2023-05-04T08:48:05.695Z,12.44
2023-05-04T08:49:05.670Z,12.56
2023-05-04T08:50:05.648Z,13.67
2023-05-04T08:51:05.658Z,13.94
2023-05-04T08:52:05.676Z,13.78
2023-05-04T08:53:05.693Z,13.78
2023-05-04T08:55:05.842Z,13.33
2023-05-04T08:57:05.693Z,14.56
2023-05-04T08:58:05.677Z,15
2023-05-04T08:59:05.670Z,16.06
2023-05-04T09:00:05.706Z,15.89
2023-05-04T09:01:05.746Z,15.39
2023-05-04T09:03:05.752Z,15.17
2023-05-04T09:04:05.701Z,14.67
2023-05-04T09:05:05.799Z,14.11
2023-05-04T09:06:05.699Z,14.28
2023-05-04T09:08:05.703Z,13.39
2023-05-04T09:09:05.807Z,13.39
2023-05-04T09:10:05.678Z,14.78
2023-05-04T09:11:05.694Z,15.17
2023-05-04T09:12:05.693Z,15.78
2023-05-04T09:13:05.717Z,16.22
2023-05-04T09:14:05.679Z,16.72
2023-05-04T09:15:05.971Z,16.83
2023-05-04T09:17:05.794Z,16.72
2023-05-04T09:18:05.709Z,16.72
2023-05-04T09:20:05.717Z,16.56
2023-05-04T09:21:05.735Z,16.39
2023-05-04T09:23:05.700Z,17
2023-05-04T09:24:05.706Z,17.5
2023-05-04T09:25:05.934Z,17
2023-05-04T09:27:05.718Z,16.06
2023-05-04T09:28:05.699Z,17.33
2023-05-04T09:29:05.726Z,16.72
2023-05-04T09:30:05.696Z,16.22
2023-05-04T09:31:05.775Z,16.56
2023-05-04T09:33:05.725Z,16.39
2023-05-04T09:34:05.716Z,17
2023-05-04T09:35:06.062Z,17.33
2023-05-04T09:38:05.713Z,16.22
2023-05-04T09:39:05.702Z,16.72
2023-05-04T09:40:05.702Z,17
2023-05-04T09:41:05.753Z,17
2023-05-04T09:43:05.714Z,15.61
2023-05-04T09:44:05.718Z,14.78
2023-05-04T09:45:05.935Z,15.61
2023-05-04T09:46:05.745Z,16.06
2023-05-04T09:47:05.715Z,15.89
2023-05-04T09:49:05.710Z,17.5
2023-05-04T09:50:05.818Z,17.83
2023-05-04T09:51:05.734Z,16.06
2023-05-04T09:52:05.736Z,15.61
2023-05-04T09:53:05.734Z,16.89
2023-05-04T09:54:05.740Z,16.89
2023-05-04T09:55:05.844Z,17.33
2023-05-04T09:57:05.753Z,16.56
2023-05-04T09:59:05.728Z,15.78
2023-05-04T10:00:05.732Z,15.28
2023-05-04T10:02:14.396Z,16.06
2023-05-04T10:04:05.731Z,15.89
2023-05-04T10:05:05.975Z,16.06
2023-05-04T10:06:05.776Z,16.22
2023-05-04T10:07:05.730Z,16.39
2023-05-04T10:08:05.732Z,16.06
2023-05-04T10:09:05.782Z,16.22
2023-05-04T10:10:05.720Z,15.89
2023-05-04T10:11:05.737Z,15.28
2023-05-04T10:12:05.740Z,15.61
2023-05-04T10:13:05.786Z,15.78
2023-05-04T10:15:05.981Z,16.39
2023-05-04T10:17:05.744Z,16.89
2023-05-04T10:19:05.740Z,18.44
2023-05-04T10:20:05.739Z,18.94
2023-05-04T10:21:05.769Z,18.61
2023-05-04T10:22:05.740Z,18.94
2023-05-04T10:24:05.744Z,17.94
2023-05-04T10:26:05.760Z,18.44
2023-05-04T10:27:05.736Z,18.94
2023-05-04T10:28:05.734Z,18.44
2023-05-04T10:29:05.771Z,17.17
2023-05-04T10:31:05.749Z,16.89
2023-05-04T10:32:05.753Z,17.5
2023-05-04T10:33:05.854Z,18.61
2023-05-04T10:34:05.764Z,19.06
2023-05-04T10:35:05.912Z,19.28
2023-05-04T10:36:05.763Z,19.44
2023-05-04T10:38:05.797Z,19.94
2023-05-04T10:40:07.722Z,19.94
2023-05-04T10:41:05.754Z,20.72
2023-05-04T10:43:05.754Z,19.56
2023-05-04T10:44:05.757Z,18.94
2023-05-04T10:45:05.985Z,19.44
2023-05-04T10:47:05.918Z,19.28
2023-05-04T10:48:05.803Z,18.44
2023-05-04T10:49:05.777Z,18.17
2023-05-04T10:50:05.767Z,18.61
2023-05-04T10:51:05.807Z,18.17
2023-05-04T10:52:05.815Z,17.94
2023-05-04T10:54:05.779Z,19.28
2023-05-04T10:55:05.982Z,18.78
2023-05-04T10:56:05.796Z,18.56
2023-05-04T10:57:05.767Z,18.17
2023-05-04T10:58:05.771Z,18.67
2023-05-04T10:59:05.773Z,19.61
2023-05-04T11:01:05.831Z,20.11
2023-05-04T11:03:05.902Z,18
2023-05-04T11:05:06.138Z,18.17
2023-05-04T11:06:05.792Z,17.83
2023-05-04T11:07:05.804Z,18.5
2023-05-04T11:08:05.779Z,18.67
2023-05-04T11:09:05.800Z,18.17
2023-05-04T11:10:05.791Z,18.17
2023-05-04T11:11:05.788Z,17.83
2023-05-04T11:12:05.793Z,18.17
2023-05-04T11:13:06.494Z,19.11
2023-05-04T11:14:05.795Z,18.5
2023-05-04T11:15:06.095Z,19.44
2023-05-04T11:16:05.804Z,19.94
2023-05-04T11:17:15.915Z,19.11
2023-05-04T11:19:05.794Z,20.39
2023-05-04T11:20:05.803Z,20.39
2023-05-04T11:21:05.818Z,19.83
2023-05-04T11:22:05.822Z,20.11
2023-05-04T11:23:05.805Z,20.11
2023-05-04T11:25:05.968Z,20.22
2023-05-04T11:26:05.823Z,20.56
2023-05-04T11:27:05.811Z,19.94
2023-05-04T11:28:05.797Z,21.39
2023-05-04T11:29:05.844Z,21.56
2023-05-04T11:31:05.820Z,21.06
2023-05-04T11:32:05.814Z,21.56
2023-05-04T11:33:05.904Z,21.56
2023-05-04T11:34:05.812Z,21.89
2023-05-04T11:35:05.956Z,22.61
2023-05-04T11:36:05.850Z,21.56
2023-05-04T11:37:05.824Z,20.39
2023-05-04T11:38:05.818Z,20.39
2023-05-04T11:39:05.845Z,20.56
2023-05-04T11:41:05.839Z,21.06
2023-05-04T11:42:05.823Z,19.94
2023-05-04T11:43:05.871Z,19.83
2023-05-04T11:45:05.975Z,20.22
2023-05-04T11:46:05.840Z,20.11
2023-05-04T11:47:05.848Z,20.56
2023-05-04T11:49:05.858Z,19.44
2023-05-04T11:51:05.839Z,20.11
2023-05-04T11:52:05.890Z,19.94
2023-05-04T11:54:05.840Z,20.11
2023-05-04T11:55:06.121Z,19.61
2023-05-04T11:56:05.844Z,19.94
2023-05-04T11:57:05.840Z,20.22
2023-05-04T11:58:05.842Z,21.06
2023-05-04T11:59:05.857Z,20.39
2023-05-04T12:01:05.860Z,20.56
2023-05-04T12:02:05.851Z,20.56
2023-05-04T12:03:06.006Z,21.06
2023-05-04T12:05:05.990Z,20.22
2023-05-04T12:07:05.869Z,19.39
2023-05-04T12:08:05.852Z,19
2023-05-04T12:09:05.850Z,19.33
2023-05-04T12:10:05.860Z,19.44
2023-05-04T12:12:05.851Z,20.44
2023-05-04T12:14:05.851Z,22.06
2023-05-04T12:15:06.082Z,20.28
2023-05-04T12:17:05.862Z,20.78
2023-05-04T12:18:05.933Z,20.28
2023-05-04T12:19:05.864Z,20.78
2023-05-04T12:20:05.864Z,21.39
2023-05-04T12:21:05.914Z,21.72
2023-05-04T12:23:05.890Z,21.72
2023-05-04T12:24:05.869Z,21.94
2023-05-04T12:25:06.004Z,22.22
2023-05-04T12:26:05.872Z,22.61
2023-05-04T12:27:05.865Z,21.94
2023-05-04T12:29:05.881Z,23.28
2023-05-04T12:30:05.866Z,23.28
2023-05-04T12:31:05.879Z,23.28
2023-05-04T12:33:05.914Z,22.94
2023-05-04T12:34:05.882Z,23.28
2023-05-04T12:35:06.075Z,23.28
2023-05-04T12:36:06.017Z,23.44
2023-05-04T12:37:05.905Z,22.94
2023-05-04T12:39:05.871Z,21.72
2023-05-04T12:41:05.893Z,20.89
2023-05-04T12:42:05.888Z,21.06
2023-05-04T12:43:05.868Z,21.22
2023-05-04T12:45:06.093Z,20.39
2023-05-04T12:46:05.965Z,20.78
2023-05-04T12:47:05.880Z,20.78
2023-05-04T12:48:05.897Z,20.56
2023-05-04T12:49:05.882Z,21.22
2023-05-04T12:50:05.897Z,21.22
2023-05-04T12:51:05.886Z,21.22
2023-05-04T12:52:05.892Z,21.72
2023-05-04T12:53:05.935Z,21.22
2023-05-04T12:54:05.878Z,21.39
2023-05-04T12:55:06.073Z,21.72
2023-05-04T12:57:05.902Z,22.22
2023-05-04T12:58:05.908Z,22.61
2023-05-04T12:59:05.877Z,22.61
2023-05-04T13:00:05.906Z,22.94
2023-05-04T13:02:05.925Z,23.28
2023-05-04T13:04:05.895Z,22.61
2023-05-04T13:06:05.952Z,23.28
2023-05-04T13:07:05.904Z,23.67
2023-05-04T13:09:06.140Z,23.44
2023-05-04T13:11:05.892Z,23.44
2023-05-04T13:12:05.888Z,23.44
2023-05-04T13:13:05.972Z,23.67
2023-05-04T13:15:06.122Z,21.72
2023-05-04T13:17:05.896Z,22.22
2023-05-04T13:19:05.898Z,22.78
2023-05-04T13:20:06.066Z,22.61
2023-05-04T13:21:05.919Z,23.28
2023-05-04T13:23:05.922Z,20.78
2023-05-04T13:25:06.059Z,21.22
2023-05-04T13:27:05.922Z,20.89
2023-05-04T13:28:05.912Z,21.22
2023-05-04T13:30:05.909Z,21.22
2023-05-04T13:31:05.932Z,21.39
2023-05-04T13:32:05.904Z,21.72
2023-05-04T13:33:13.637Z,21.72
2023-05-04T13:34:05.910Z,21.72
2023-05-04T13:35:06.163Z,21.22
2023-05-04T13:37:05.902Z,23.28
2023-05-04T13:38:05.904Z,21.72
2023-05-04T13:39:05.891Z,21.22
2023-05-04T13:40:05.902Z,21.06
2023-05-04T13:41:06.022Z,21.17
2023-05-04T13:43:05.901Z,20.89
2023-05-04T13:44:05.903Z,21.17
2023-05-04T13:45:06.024Z,21.22
2023-05-04T13:47:05.963Z,21.94
2023-05-04T13:49:05.914Z,22.61
2023-05-04T13:50:05.921Z,22.94
2023-05-04T13:52:05.937Z,22.61
2023-05-04T13:54:05.914Z,21.56
2023-05-04T13:55:06.076Z,21.56
2023-05-04T13:56:05.916Z,21.22
2023-05-04T13:57:05.976Z,20.89
2023-05-04T13:59:05.930Z,21.39
2023-05-04T14:00:07.415Z,21.78
2023-05-04T14:01:06.010Z,21.94
2023-05-04T14:03:06.041Z,21.22
2023-05-04T14:04:05.917Z,21.94
2023-05-04T14:06:05.926Z,22.44
2023-05-04T14:07:05.930Z,22.78
2023-05-04T14:09:05.913Z,23.28
2023-05-04T14:10:05.911Z,23.11
2023-05-04T14:11:05.935Z,23.28
2023-05-04T14:13:05.982Z,22.44
2023-05-04T14:15:06.097Z,22.94
2023-05-04T14:17:05.920Z,24.33
2023-05-04T14:18:05.944Z,25.06
2023-05-04T14:19:05.939Z,26.17
2023-05-04T14:20:05.966Z,24.89
2023-05-04T14:22:05.944Z,23.83
2023-05-04T14:24:05.933Z,24
2023-05-04T14:25:06.209Z,24
2023-05-04T14:26:05.936Z,24
2023-05-04T14:27:05.942Z,24.5
2023-05-04T14:28:05.947Z,25.06
2023-05-04T14:29:05.967Z,24.89
2023-05-04T14:31:05.952Z,24
2023-05-04T14:32:05.966Z,24
2023-05-04T14:33:05.957Z,25.22
2023-05-04T14:34:05.967Z,25.44
2023-05-04T14:35:06.140Z,26.17
2023-05-04T14:36:05.940Z,26.56
2023-05-04T14:38:05.960Z,26.17
2023-05-04T14:40:06.089Z,25.61
2023-05-04T14:42:05.943Z,25.61
2023-05-04T14:43:05.966Z,25.06
2023-05-04T14:45:06.255Z,23.83
2023-05-04T14:46:05.996Z,24.17
2023-05-04T14:47:07.619Z,24
2023-05-04T14:48:05.983Z,24
2023-05-04T14:50:06.196Z,24
2023-05-04T14:52:05.963Z,25.78
2023-05-04T14:53:05.970Z,25.22
2023-05-04T14:54:05.961Z,24.67
2023-05-04T14:55:05.961Z,23.67
2023-05-04T14:56:05.983Z,23.67
2023-05-04T14:57:05.976Z,23.67
2023-05-04T14:59:05.972Z,23.44
2023-05-04T15:01:06.021Z,22.94
2023-05-04T15:02:05.963Z,22.78
2023-05-04T15:03:06.081Z,23.44
2023-05-04T15:05:05.991Z,23.28
2023-05-04T15:07:05.974Z,22.94
2023-05-04T15:08:05.975Z,22.78
2023-05-04T15:09:05.992Z,22.78
2023-05-04T15:10:06.079Z,22.44
2023-05-04T15:11:05.983Z,22.61
2023-05-04T15:12:05.984Z,22.94
2023-05-04T15:13:06.040Z,23.44
2023-05-04T15:15:05.989Z,24.5
2023-05-04T15:16:06.023Z,24
2023-05-04T15:17:06.005Z,24.5
2023-05-04T15:19:06.007Z,25.06
2023-05-04T15:20:06.324Z,26.33
2023-05-04T15:22:06.008Z,26.33
2023-05-04T15:23:05.999Z,26.56
2023-05-04T15:25:05.991Z,27.17
2023-05-04T15:27:05.999Z,28.11
2023-05-04T15:29:06.000Z,26.17
2023-05-04T15:31:06.017Z,25.78
2023-05-04T15:32:05.997Z,26.72
2023-05-04T15:33:06.057Z,26.83
2023-05-04T15:34:06.066Z,26.56
2023-05-04T15:35:06.439Z,24.5
2023-05-04T15:36:06.008Z,23.83
2023-05-04T15:37:05.997Z,23.67
2023-05-04T15:38:06.004Z,24.5
2023-05-04T15:39:05.993Z,23.44
2023-05-04T15:40:06.232Z,22.94
2023-05-04T15:41:06.022Z,22.94
2023-05-04T15:42:06.026Z,22.44
2023-05-04T15:43:06.003Z,22.44
2023-05-04T15:44:06.018Z,22.94
2023-05-04T15:46:06.053Z,22.94
2023-05-04T15:47:06.107Z,23.28
2023-05-04T15:48:06.074Z,22.94
2023-05-04T15:49:06.034Z,22.61
2023-05-04T15:51:06.019Z,23.11
2023-05-04T15:52:06.033Z,22.94
2023-05-04T15:53:06.045Z,22.94
2023-05-04T15:55:16.807Z,22.78
2023-05-04T15:56:06.287Z,22.22
2023-05-04T15:57:06.036Z,21.56
2023-05-04T15:59:06.030Z,21.94
2023-05-04T16:00:06.127Z,21.94
2023-05-04T16:01:06.048Z,21.94
2023-05-04T16:03:06.144Z,21.94
2023-05-04T16:04:06.034Z,21.78
2023-05-04T16:05:06.107Z,21.94
2023-05-04T16:07:06.047Z,21.22
2023-05-04T16:09:06.044Z,21.56
2023-05-04T16:10:06.257Z,21.78
2023-05-04T16:12:06.040Z,21.39
2023-05-04T16:14:06.032Z,20.78
2023-05-04T16:15:06.039Z,21.06
2023-05-04T16:16:06.043Z,21.06
2023-05-04T16:18:06.068Z,20.89
2023-05-04T16:20:06.307Z,20.78
2023-05-04T16:21:06.070Z,21.06
2023-05-04T16:23:06.130Z,20.89
2023-05-04T16:24:06.052Z,21.22
2023-05-04T16:26:06.045Z,22.06
2023-05-04T16:27:06.050Z,22.44
2023-05-04T16:28:06.065Z,22.61
2023-05-04T16:29:06.059Z,22.94
2023-05-04T16:30:06.295Z,23.11
2023-05-04T16:32:06.226Z,22.94
2023-05-04T16:33:06.084Z,23.83
2023-05-04T16:34:06.069Z,22.78
2023-05-04T16:36:06.071Z,21.94
2023-05-04T16:37:06.087Z,21.94
2023-05-04T16:39:06.067Z,21.39
2023-05-04T16:40:06.361Z,21.22
2023-05-04T16:42:06.086Z,20.89
2023-05-04T16:43:06.082Z,21.06
2023-05-04T16:44:06.088Z,21.06
2023-05-04T16:46:06.111Z,21.06
2023-05-04T16:47:06.087Z,20.89
2023-05-04T16:48:06.118Z,20.72